Terminal Aerodrome Forecast
Issued by NWS Jacksonville, FL

Home | Current Version | Previous Version | Text Only | Print | Product List | Glossary On
Versions: 1 2 3 4 5 6 7 8 9 10 11 12 13 14 15 16 17 18 19 20 21
000
FTUS42 KJAX 221900 AAA
TAFJAX
TAF AMD
KJAX 221925Z 2219/2318 18005KT P6SM SCT040 SCT250
     FM222000 14007KT P6SM VCTS SCT035CB BKN250
     FM230100 16003KT P6SM VCTS SCT035CB OVC250
     FM231400 05005KT P6SM VCSH SCT020 BKN040=

USA.gov is the U.S. government's official web portal to all federal, state and local government web resources and services.